Time;durP1;ratioP1;P1;durP2;ratioP2;P2;SDS_P1;SDS_P2;PMS_P1;PMS_P2;Temp;Humidity;BMP_temperature;BMP_pressure;BME280_temperature;BME280_humidity;BME280_pressure;Samples;Min_cycle;Max_cycle;Signal;HPM_P1;HPM_P2
2022/10/19 00:00:46;;;;;;;7.90;5.30;;;;;;;11.22;100.00;96560.97;6175062;23;19997;-63
2022/10/19 00:03:11;;;;;;;9.02;4.43;;;;;;;11.18;100.00;96557.75;6176551;23;20001;-63
2022/10/19 00:05:37;;;;;;;7.15;5.15;;;;;;;11.15;100.00;96552.72;6175891;23;20039;-64
2022/10/19 00:08:02;;;;;;;6.45;4.55;;;;;;;11.19;100.00;96555.94;6176158;23;20780;-64
2022/10/19 00:10:28;;;;;;;15.85;4.63;;;;;;;11.21;100.00;96550.56;6175792;23;20013;-63
2022/10/19 00:12:53;;;;;;;7.95;4.30;;;;;;;11.19;100.00;96553.31;6175960;23;20036;-64
2022/10/19 00:15:18;;;;;;;9.80;4.70;;;;;;;11.18;100.00;96549.84;6175822;23;20470;-64
2022/10/19 00:17:44;;;;;;;8.88;4.70;;;;;;;11.13;100.00;96554.63;6176277;23;20080;-64
2022/10/19 00:20:10;;;;;;;9.93;4.78;;;;;;;11.09;100.00;96547.94;6176057;22;20013;-64
2022/10/19 00:22:35;;;;;;;8.45;4.78;;;;;;;11.00;100.00;96544.25;6176484;23;20012;-68
2022/10/19 00:25:00;;;;;;;7.93;4.85;;;;;;;10.99;100.00;96547.03;6175777;23;20005;-68
2022/10/19 00:27:26;;;;;;;8.73;5.05;;;;;;;10.96;100.00;96542.00;6176414;23;20036;-67
2022/10/19 00:29:51;;;;;;;7.70;4.95;;;;;;;11.00;100.00;96544.25;6175937;23;20004;-68
2022/10/19 00:32:17;;;;;;;7.03;5.25;;;;;;;10.97;100.00;96544.50;6176352;23;20032;-68
2022/10/19 00:34:42;;;;;;;10.13;4.97;;;;;;;10.95;100.00;96550.88;6176013;23;20034;-68
2022/10/19 00:37:07;;;;;;;14.73;4.35;;;;;;;10.98;100.00;96542.72;6176309;23;20391;-67
2022/10/19 00:39:33;;;;;;;6.90;4.28;;;;;;;10.99;100.00;96541.75;6174384;23;20058;-64
2022/10/19 00:41:58;;;;;;;8.18;5.28;;;;;;;10.95;100.00;96545.59;6174911;23;20001;-64
2022/10/19 00:44:30;;;;;;;6.78;4.85;;;;;;;10.91;100.00;96545.00;6174317;23;20032;-63
2022/10/19 00:47:02;;;;;;;11.25;4.00;;;;;;;10.87;100.00;96554.94;6175126;23;20001;-63
2022/10/19 00:49:31;;;;;;;10.40;5.22;;;;;;;10.82;100.00;96557.09;6175481;23;20005;-65
2022/10/19 00:52:01;;;;;;;9.55;4.78;;;;;;;10.80;100.00;96552.91;6174426;23;20008;-65
2022/10/19 00:54:28;;;;;;;10.00;4.57;;;;;;;10.78;100.00;96552.19;6174796;23;20008;-65
2022/10/19 00:56:56;;;;;;;14.65;4.68;;;;;;;10.78;100.00;96553.06;6175665;23;20001;-56
2022/10/19 00:59:24;;;;;;;7.40;4.60;;;;;;;10.78;100.00;96553.06;6175617;23;20005;-56
2022/10/19 01:01:51;;;;;;;9.93;5.13;;;;;;;10.74;100.00;96555.06;6176313;22;20012;-64
2022/10/19 01:04:20;;;;;;;11.43;4.97;;;;;;;10.72;100.00;96562.28;6175918;23;20005;-64
2022/10/19 01:06:46;;;;;;;10.38;4.82;;;;;;;10.67;100.00;96560.94;6175750;23;20332;-64
2022/10/19 01:09:11;;;;;;;7.10;4.63;;;;;;;10.62;100.00;96561.34;6176191;23;20079;-63
2022/10/19 01:12:00;;;;;;;10.18;5.82;;;;;;;10.60;100.00;96553.53;6175611;23;20713;-64
2022/10/19 01:14:31;;;;;;;10.60;4.60;;;;;;;10.62;100.00;96555.22;6174265;23;19993;-64
2022/10/19 01:16:57;;;;;;;10.10;5.10;;;;;;;10.63;100.00;96549.00;6175701;23;20088;-68
2022/10/19 01:19:40;;;;;;;16.58;5.22;;;;;;;10.66;100.00;96548.75;6176055;23;20041;-65
2022/10/19 01:22:21;;;;;;;10.20;4.97;;;;;;;10.62;100.00;96549.94;6175598;23;20000;-65
2022/10/19 01:25:08;;;;;;;11.90;5.20;;;;;;;10.56;100.00;96544.22;6174427;23;20008;-65
2022/10/19 01:27:48;;;;;;;6.55;4.53;;;;;;;10.55;100.00;96537.28;6175749;23;20005;-65
2022/10/19 01:30:57;;;;;;;12.57;4.50;;;;;;;10.58;100.00;96544.94;6175738;23;20495;-65
2022/10/19 01:33:55;;;;;;;10.40;5.68;;;;;;;10.52;100.00;96542.78;6175280;23;20017;-65
2022/10/19 01:36:25;;;;;;;15.65;5.20;;;;;;;10.51;100.00;96548.16;6175866;23;20001;-65
2022/10/19 01:39:08;;;;;;;12.88;4.70;;;;;;;10.44;100.00;96547.78;6175357;23;20001;-65
2022/10/19 01:41:36;;;;;;;8.68;5.07;;;;;;;10.39;100.00;96540.25;6175771;23;20436;-65
2022/10/19 01:44:10;;;;;;;13.70;4.78;;;;;;;10.37;100.00;96536.06;6175520;23;20006;-64
2022/10/19 01:46:38;;;;;;;10.95;5.28;;;;;;;10.34;100.00;96538.94;6175203;23;20088;-65
2022/10/19 01:49:15;;;;;;;15.73;4.80;;;;;;;10.35;100.00;96530.91;6174897;23;20173;-64
2022/10/19 01:51:46;;;;;;;15.48;5.25;;;;;;;10.39;100.00;96536.75;6174970;22;20005;-64
2022/10/19 01:54:15;;;;;;;15.23;4.72;;;;;;;10.41;100.00;96532.25;6176385;23;20072;-62
2022/10/19 01:56:44;;;;;;;6.60;4.60;;;;;;;10.42;100.00;96533.91;6177299;23;20016;-64
2022/10/19 01:59:11;;;;;;;8.50;4.80;;;;;;;10.39;100.00;96540.25;6177219;23;20363;-59
2022/10/19 02:01:42;;;;;;;10.77;4.72;;;;;;;10.30;100.00;96544.44;6176578;23;20080;-59
2022/10/19 02:04:10;;;;;;;13.60;5.18;;;;;;;10.28;100.00;96538.47;6176702;23;20001;-59
2022/10/19 02:06:36;;;;;;;8.93;5.00;;;;;;;10.27;100.00;96541.19;6176319;23;20043;-59
2022/10/19 02:09:02;;;;;;;12.65;5.47;;;;;;;10.25;100.00;96536.03;6176688;23;20001;-59
2022/10/19 02:11:28;;;;;;;11.48;5.28;;;;;;;10.25;100.00;96538.66;6176417;23;20012;-59
2022/10/19 02:14:08;;;;;;;10.50;5.00;;;;;;;10.24;100.00;96537.00;6176066;23;19993;-62
2022/10/19 02:16:39;;;;;;;11.07;5.10;;;;;;;10.19;100.00;96531.25;6176531;23;20005;-68
2022/10/19 02:19:07;;;;;;;10.57;5.13;;;;;;;10.20;100.00;96529.47;6176852;23;20021;-63
2022/10/19 02:21:33;;;;;;;12.30;4.93;;;;;;;10.23;100.00;96527.44;6176697;23;20001;-63
2022/10/19 02:23:59;;;;;;;13.57;4.68;;;;;;;10.21;100.00;96526.72;6175982;23;20008;-63
2022/10/19 02:26:24;;;;;;;8.95;5.18;;;;;;;10.18;100.00;96521.69;6175876;23;20009;-63
2022/10/19 02:28:50;;;;;;;14.15;5.05;;;;;;;10.14;100.00;96512.38;6176941;23;20393;-64
2022/10/19 02:31:16;;;;;;;11.77;5.22;;;;;;;10.14;100.00;96505.28;6176184;23;20004;-63
2022/10/19 02:33:41;;;;;;;10.70;4.60;;;;;;;10.11;100.00;96504.72;6176670;23;20001;-63
2022/10/19 02:36:07;;;;;;;9.00;5.50;;;;;;;10.12;100.00;96507.22;6176448;23;20066;-67
2022/10/19 02:38:33;;;;;;;13.13;5.57;;;;;;;10.11;100.00;96505.53;6176271;23;19996;-62
2022/10/19 02:41:01;;;;;;;12.18;4.72;;;;;;;10.06;100.00;96498.94;6176567;23;20001;-63
2022/10/19 02:43:30;;;;;;;6.78;4.43;;;;;;;10.02;100.00;96496.56;6175984;23;20005;-62
2022/10/19 02:46:26;;;;;;;10.73;5.60;;;;;;;9.97;100.00;96492.63;6176276;23;20000;-62
2022/10/19 02:48:54;;;;;;;7.85;5.03;;;;;;;9.94;100.00;96482.31;6176444;23;20351;-62
2022/10/19 02:51:30;;;;;;;17.70;5.03;;;;;;;9.94;100.00;96474.44;6149836;22;20044;-62
2022/10/19 02:53:55;;;;;;;14.73;5.20;;;;;;;9.95;100.00;96473.50;6176672;22;20114;-65
2022/10/19 02:56:21;;;;;;;13.93;5.38;;;;;;;9.93;100.00;96473.59;6176775;23;20424;-67
2022/10/19 02:58:47;;;;;;;15.07;4.97;;;;;;;9.91;100.00;96474.66;6177004;23;20007;-68
2022/10/19 03:01:13;;;;;;;13.75;5.63;;;;;;;9.88;100.00;96466.06;6176660;23;20062;-68
2022/10/19 03:03:38;;;;;;;11.27;4.85;;;;;;;9.86;100.00;96464.53;6175744;23;20031;-68
2022/10/19 03:06:04;;;;;;;7.10;4.97;;;;;;;9.88;100.00;96457.34;6176033;23;20435;-67
2022/10/19 03:08:29;;;;;;;17.33;7.45;;;;;;;9.88;100.00;96470.50;6176298;23;20013;-67
2022/10/19 03:10:57;;;;;;;17.02;9.77;;;;;;;9.88;100.00;96462.63;6176585;23;20016;-68
2022/10/19 03:13:23;;;;;;;10.00;5.63;;;;;;;9.88;100.00;96457.34;6176069;23;20155;-62
2022/10/19 03:15:49;;;;;;;12.02;4.82;;;;;;;9.93;100.00;96449.09;6175867;23;20001;-57
2022/10/19 03:18:14;;;;;;;9.05;5.10;;;;;;;9.92;100.00;96448.25;6177035;23;20503;-56
2022/10/19 03:20:39;;;;;;;12.85;5.38;;;;;;;9.91;100.00;96443.97;6176079;23;20450;-57
2022/10/19 03:23:05;;;;;;;14.38;5.18;;;;;;;9.90;100.00;96447.53;6150015;22;19998;-57
2022/10/19 03:25:30;;;;;;;10.60;5.25;;;;;;;9.87;100.00;96445.97;6175586;23;20029;-56
2022/10/19 03:27:55;;;;;;;14.95;7.20;;;;;;;9.87;100.00;96447.78;6176806;23;20001;-55
2022/10/19 03:30:21;;;;;;;8.23;4.82;;;;;;;9.83;100.00;96438.44;6175713;23;20031;-66
2022/10/19 03:32:46;;;;;;;8.38;4.82;;;;;;;9.81;100.00;96435.09;6176600;23;20050;-64
2022/10/19 03:35:11;;;;;;;7.30;5.57;;;;;;;9.75;100.00;96442.50;6175719;23;20000;-64
2022/10/19 03:37:37;;;;;;;9.50;5.03;;;;;;;9.71;100.00;96440.22;6176678;23;20102;-64
2022/10/19 03:40:02;;;;;;;9.40;5.25;;;;;;;9.72;100.00;96432.22;6176052;23;20430;-64
2022/10/19 03:42:28;;;;;;;8.27;4.47;;;;;;;9.78;100.00;96437.97;6176216;23;20009;-65
2022/10/19 03:44:53;;;;;;;12.40;6.07;;;;;;;9.81;100.00;96443.84;6176180;22;20131;-64
2022/10/19 03:47:19;;;;;;;13.95;5.78;;;;;;;9.79;100.00;96440.50;6147629;23;20057;-64
2022/10/19 03:49:44;;;;;;;10.95;4.55;;;;;;;9.76;100.00;96440.72;6174895;23;20084;-59
2022/10/19 03:52:10;;;;;;;12.45;4.82;;;;;;;9.72;100.00;96440.13;6175596;23;20000;-59
2022/10/19 03:54:35;;;;;;;8.27;4.55;;;;;;;9.69;100.00;96439.50;6174786;23;19997;-67
2022/10/19 03:57:00;;;;;;;13.15;4.57;;;;;;;9.65;100.00;96435.44;6176335;23;19997;-67
2022/10/19 03:59:26;;;;;;;11.80;5.05;;;;;;;9.65;100.00;96440.69;6176716;23;20009;-66
2022/10/19 04:01:51;;;;;;;9.55;5.10;;;;;;;9.64;100.00;96439.03;6176562;23;20001;-67
2022/10/19 04:04:18;;;;;;;6.07;4.80;;;;;;;9.64;100.00;96444.28;6175941;23;20005;-67
2022/10/19 04:06:45;;;;;;;10.73;4.60;;;;;;;9.65;100.00;96446.81;6176079;23;20080;-67
2022/10/19 04:09:15;;;;;;;10.15;5.03;;;;;;;9.63;100.00;96443.47;6176648;22;20335;-66
2022/10/19 04:11:40;;;;;;;12.57;5.03;;;;;;;9.58;100.00;96445.59;6176376;23;20466;-64
2022/10/19 04:14:07;;;;;;;12.55;4.20;;;;;;;9.55;100.00;96456.34;6175013;23;19993;-62
2022/10/19 04:16:32;;;;;;;7.85;4.65;;;;;;;9.54;100.00;96445.00;6174992;23;20498;-63
2022/10/19 04:18:58;;;;;;;12.55;5.38;;;;;;;9.56;100.00;96444.88;6176197;23;20059;-62
2022/10/19 04:21:32;;;;;;;10.77;5.30;;;;;;;9.51;100.00;96437.34;6175724;23;20001;-62
2022/10/19 04:24:01;;;;;;;16.38;4.72;;;;;;;9.49;100.00;96441.03;6175469;23;20005;-62
2022/10/19 04:26:27;;;;;;;18.52;4.65;;;;;;;9.47;100.00;96446.41;6175134;23;20004;-63
2022/10/19 04:28:52;;;;;;;11.82;4.20;;;;;;;9.45;100.00;96438.66;6175613;23;19997;-59
2022/10/19 04:31:17;;;;;;;12.02;4.97;;;;;;;9.43;100.00;96444.97;6176221;23;20001;-67
2022/10/19 04:33:43;;;;;;;14.48;5.40;;;;;;;9.41;100.00;96446.88;6176146;23;20011;-64
2022/10/19 04:36:10;;;;;;;9.77;4.90;;;;;;;9.32;100.00;96448.41;6175241;23;19997;-64
2022/10/19 04:38:35;;;;;;;10.52;4.50;;;;;;;9.32;100.00;96445.78;6175649;23;20005;-64
2022/10/19 04:41:05;;;;;;;22.77;5.43;;;;;;;9.37;100.00;96450.69;6176083;22;20506;-64
2022/10/19 04:43:30;;;;;;;11.98;5.22;;;;;;;9.34;100.00;96454.38;6175637;23;20001;-64
2022/10/19 04:45:56;;;;;;;7.40;4.63;;;;;;;9.38;100.00;96450.56;6175729;23;19997;-64
2022/10/19 04:48:24;;;;;;;10.32;5.38;;;;;;;9.39;100.00;96451.41;6175785;23;19997;-69
2022/10/19 04:50:54;;;;;;;13.80;5.30;;;;;;;9.34;100.00;96454.38;6176249;23;20005;-65
2022/10/19 04:53:19;;;;;;;16.95;5.43;;;;;;;9.35;100.00;96457.88;6176073;22;20007;-59
2022/10/19 04:55:45;;;;;;;14.73;5.50;;;;;;;9.32;100.00;96449.25;6175874;23;20001;-59
2022/10/19 04:58:10;;;;;;;13.65;4.85;;;;;;;9.39;100.00;96449.59;6175985;23;20352;-59
2022/10/19 05:00:39;;;;;;;21.85;5.95;;;;;;;9.41;100.00;96452.13;6175628;23;20400;-59
2022/10/19 05:03:04;;;;;;;16.23;5.22;;;;;;;9.37;100.00;96451.53;6175782;23;20011;-58
2022/10/19 05:05:31;;;;;;;13.90;5.57;;;;;;;9.38;100.00;96452.38;6174996;23;20029;-59
2022/10/19 05:07:56;;;;;;;13.73;4.93;;;;;;;9.35;100.00;96445.53;6148587;23;20389;-65
2022/10/19 05:10:21;;;;;;;11.93;5.00;;;;;;;9.31;100.00;96444.09;6175165;23;20008;-63
2022/10/19 05:12:47;;;;;;;11.60;5.22;;;;;;;9.27;100.00;96450.56;6176250;23;20080;-62
2022/10/19 05:15:12;;;;;;;9.45;4.65;;;;;;;9.27;100.00;96447.91;6174847;23;19993;-62
2022/10/19 05:17:37;;;;;;;9.73;4.80;;;;;;;9.30;100.00;96443.28;6175895;23;20001;-62
2022/10/19 05:20:03;;;;;;;14.45;6.20;;;;;;;9.28;100.00;96441.72;6175613;23;20112;-62
2022/10/19 05:22:28;;;;;;;12.43;5.18;;;;;;;9.25;100.00;96441.94;6175817;23;20451;-62
2022/10/19 05:24:54;;;;;;;11.45;4.88;;;;;;;9.22;100.00;96437.75;6148708;23;20021;-62
2022/10/19 05:27:19;;;;;;;14.45;5.63;;;;;;;9.20;100.00;96434.41;6175081;23;19997;-68
2022/10/19 05:29:45;;;;;;;10.10;4.82;;;;;;;9.19;100.00;96435.34;6177621;23;20008;-63
2022/10/19 05:32:10;;;;;;;10.98;4.82;;;;;;;9.19;100.00;96440.63;6176326;23;20001;-63
2022/10/19 05:34:35;;;;;;;12.77;5.40;;;;;;;9.11;100.00;96435.94;6176337;23;20459;-63
2022/10/19 05:37:01;;;;;;;13.77;4.65;;;;;;;9.13;100.00;96420.88;6177035;23;20039;-63
2022/10/19 05:39:26;;;;;;;7.05;5.15;;;;;;;9.12;100.00;96427.09;6176684;23;20004;-64
2022/10/19 05:41:52;;;;;;;8.35;4.95;;;;;;;9.13;100.00;96420.06;6175827;22;20029;-64
2022/10/19 05:44:20;;;;;;;8.70;5.53;;;;;;;9.10;100.00;96421.13;6174583;23;20454;-63
2022/10/19 05:46:47;;;;;;;8.05;5.50;;;;;;;9.05;100.00;96428.50;6176775;23;20343;-59
2022/10/19 05:49:13;;;;;;;13.77;5.07;;;;;;;9.04;100.00;96421.59;6177480;22;19997;-69
2022/10/19 05:51:39;;;;;;;17.52;5.57;;;;;;;9.05;100.00;96411.91;6177559;22;20093;-69
2022/10/19 05:54:05;;;;;;;13.35;4.85;;;;;;;9.06;100.00;96410.94;6176035;23;20028;-69
2022/10/19 05:56:31;;;;;;;17.33;5.07;;;;;;;9.03;100.00;96404.97;6177188;23;20603;-69
2022/10/19 05:58:59;;;;;;;12.15;4.85;;;;;;;9.03;100.00;96407.59;6177160;23;20013;-69
2022/10/19 06:01:26;;;;;;;12.40;5.32;;;;;;;9.06;100.00;96403.06;6175986;23;20029;-69
2022/10/19 06:03:53;;;;;;;12.88;5.32;;;;;;;9.06;100.00;96406.53;6177711;23;20054;-69
2022/10/19 06:06:19;;;;;;;13.77;5.22;;;;;;;9.05;100.00;96401.38;6177083;23;20084;-68
2022/10/19 06:08:45;;;;;;;11.43;4.88;;;;;;;9.01;100.00;96401.63;6177278;23;20032;-63
2022/10/19 06:11:10;;;;;;;12.20;5.32;;;;;;;9.00;100.00;96394.69;6177272;23;20005;-63
2022/10/19 06:13:37;;;;;;;11.88;5.57;;;;;;;9.01;100.00;96393.75;6176665;23;20005;-63
2022/10/19 06:16:04;;;;;;;12.52;6.28;;;;;;;9.01;100.00;96400.81;6176063;23;20008;-63
2022/10/19 06:18:29;;;;;;;19.02;6.55;;;;;;;9.01;100.00;96398.19;6176769;23;20023;-63
2022/10/19 06:20:55;;;;;;;17.95;6.28;;;;;;;9.06;100.00;96403.91;6176637;23;20447;-63
2022/10/19 06:23:20;;;;;;;17.55;5.72;;;;;;;9.12;100.00;96400.81;6176676;23;20013;-63
2022/10/19 06:25:46;;;;;;;9.80;5.13;;;;;;;9.11;100.00;96407.03;6176353;23;20458;-60
2022/10/19 06:28:12;;;;;;;20.08;5.93;;;;;;;9.12;100.00;96402.63;6176836;23;19997;-59
2022/10/19 06:30:39;;;;;;;22.67;6.15;;;;;;;9.15;100.00;96397.13;6150609;22;20008;-59
2022/10/19 06:33:04;;;;;;;13.13;5.63;;;;;;;9.16;100.00;96396.19;6177330;23;20019;-59
2022/10/19 06:35:30;;;;;;;17.10;5.70;;;;;;;9.13;100.00;96404.31;6175806;23;20076;-59
2022/10/19 06:37:56;;;;;;;12.40;5.90;;;;;;;9.09;100.00;96398.44;6176793;23;20431;-59
2022/10/19 06:40:22;;;;;;;15.20;6.18;;;;;;;9.14;100.00;96392.84;6176526;23;20000;-59
2022/10/19 06:42:48;;;;;;;23.20;6.10;;;;;;;9.20;100.00;96387.13;6176940;23;20093;-59
2022/10/19 06:45:13;;;;;;;14.02;5.80;;;;;;;9.26;100.00;96397.16;6175673;23;20443;-62
2022/10/19 06:47:38;;;;;;;14.88;6.25;;;;;;;9.29;100.00;96394.31;6175500;23;20431;-66
2022/10/19 06:50:05;;;;;;;16.67;6.30;;;;;;;9.30;100.00;96397.75;6177036;23;20490;-66
2022/10/19 06:52:31;;;;;;;15.35;8.02;;;;;;;9.31;100.00;96402.06;6176075;22;20001;-67
2022/10/19 06:54:57;;;;;;;14.73;5.72;;;;;;;9.32;100.00;96399.34;6176034;23;20427;-68
2022/10/19 06:57:22;;;;;;;16.65;6.35;;;;;;;9.39;100.00;96404.09;6176553;23;20015;-68
2022/10/19 06:59:48;;;;;;;13.05;5.82;;;;;;;9.42;100.00;96409.13;6177827;23;20428;-67
2022/10/19 07:02:13;;;;;;;12.23;5.88;;;;;;;9.46;100.00;96416.66;6176945;23;20009;-59
2022/10/19 07:04:38;;;;;;;16.15;5.90;;;;;;;9.49;100.00;96404.25;6176997;23;20439;-65
2022/10/19 07:07:04;;;;;;;11.02;5.75;;;;;;;9.49;100.00;96405.06;6176581;23;20191;-65
2022/10/19 07:09:29;;;;;;;13.82;5.28;;;;;;;9.51;100.00;96412.84;6176789;23;20005;-65
2022/10/19 07:11:55;;;;;;;14.02;5.70;;;;;;;9.48;100.00;96407.84;6176596;23;20057;-64
2022/10/19 07:14:23;;;;;;;16.60;6.00;;;;;;;9.49;100.00;96404.25;6176117;23;20074;-64
2022/10/19 07:16:49;;;;;;;15.40;6.32;;;;;;;9.49;100.00;96404.25;6177200;22;20019;-63
2022/10/19 07:19:14;;;;;;;10.52;5.22;;;;;;;9.50;100.00;96400.66;6176845;23;20080;-65
2022/10/19 07:21:40;;;;;;;16.45;5.63;;;;;;;9.46;100.00;96398.28;6176719;23;20101;-65
2022/10/19 07:24:07;;;;;;;13.60;5.00;;;;;;;9.45;100.00;96401.00;6176762;23;20012;-65
2022/10/19 07:26:32;;;;;;;12.85;5.70;;;;;;;9.50;100.00;96405.91;6175428;23;20050;-57
2022/10/19 07:28:59;;;;;;;9.55;4.85;;;;;;;9.53;100.00;96400.41;6176782;23;20001;-56
2022/10/19 07:31:26;;;;;;;14.43;5.85;;;;;;;9.54;100.00;96400.31;6174537;23;20001;-57
2022/10/19 07:33:57;;;;;;;15.95;6.05;;;;;;;9.56;100.00;96393.16;6175458;23;19997;-58
2022/10/19 07:36:23;;;;;;;16.23;5.60;;;;;;;9.58;100.00;96393.00;6175515;23;20023;-58
2022/10/19 07:38:49;;;;;;;12.23;5.13;;;;;;;9.60;100.00;96396.34;6175800;23;20084;-57
2022/10/19 07:41:18;;;;;;;18.33;5.70;;;;;;;9.60;100.00;96391.94;6176640;23;20474;-68
2022/10/19 07:43:47;;;;;;;15.00;5.10;;;;;;;9.64;100.00;96395.19;6176639;23;20015;-57
2022/10/19 07:46:18;;;;;;;13.32;5.75;;;;;;;9.67;100.00;96396.72;6175038;23;20009;-66
2022/10/19 07:48:44;;;;;;;9.18;5.10;;;;;;;9.69;100.00;96389.56;6176991;23;20001;-66
2022/10/19 07:51:11;;;;;;;18.23;5.32;;;;;;;9.67;100.00;96389.69;6173459;23;20001;-66
2022/10/19 07:53:37;;;;;;;27.85;7.25;;;;;;;9.68;100.00;96391.34;6149394;22;20005;-66
2022/10/19 07:56:08;;;;;;;20.42;6.40;;;;;;;9.74;100.00;96398.75;6176061;23;20569;-66
2022/10/19 07:58:35;;;;;;;24.42;7.20;;;;;;;9.88;100.00;96402.13;6176288;23;20096;-65
2022/10/19 08:01:06;;;;;;;22.20;8.07;;;;;;;10.06;100.00;96394.56;6177215;23;20430;-66
2022/10/19 08:03:33;;;;;;;20.10;9.07;;;;;;;10.25;100.00;96404.44;6149867;23;20005;-66
2022/10/19 08:06:00;;;;;;;29.05;11.07;;;;;;;10.45;100.00;96396.78;6175967;23;20570;-66
2022/10/19 08:08:26;;;;;;;27.13;10.25;;;;;;;10.66;100.00;96399.50;6149860;23;20016;-66
2022/10/19 08:10:52;;;;;;;25.45;11.55;;;;;;;10.84;100.00;96391.88;6176813;23;19997;-66
2022/10/19 08:13:17;;;;;;;18.05;9.50;;;;;;;11.01;100.00;96397.56;6176602;23;20423;-66
2022/10/19 08:15:42;;;;;;;35.28;15.15;;;;;;;11.17;100.00;96395.31;6176636;23;20040;-65
2022/10/19 08:18:08;;;;;;;28.65;12.82;;;;;;;11.37;100.00;96391.97;6176413;23;20377;-66
2022/10/19 08:20:33;;;;;;;23.33;9.95;;;;;;;11.57;100.00;96399.00;6176205;23;20035;-68
2022/10/19 08:22:59;;;;;;;23.58;10.23;;;;;;;11.74;100.00;96391.47;6176631;23;20004;-65
2022/10/19 08:25:24;;;;;;;23.13;10.50;;;;;;;11.87;100.00;96401.78;6176490;22;20005;-68
2022/10/19 08:27:49;;;;;;;20.30;7.63;;;;;;;11.93;100.00;96390.69;6176990;23;20001;-68
2022/10/19 08:30:15;;;;;;;16.60;5.20;;;;;;;12.02;100.00;96397.84;6175589;23;20005;-68
2022/10/19 08:32:40;;;;;;;10.40;4.97;;;;;;;12.11;100.00;96395.38;6176291;23;20211;-68
2022/10/19 08:35:06;;;;;;;13.63;5.32;;;;;;;12.17;100.00;96397.47;6176201;23;20001;-68
2022/10/19 08:37:32;;;;;;;14.32;6.25;;;;;;;12.27;100.00;96395.72;6176306;23;20001;-68
2022/10/19 08:39:57;;;;;;;14.70;5.47;;;;;;;12.41;100.00;96396.28;6176545;23;20071;-68
2022/10/19 08:42:30;;;;;;;14.40;5.18;;;;;;;12.53;100.00;96384.63;6176805;23;20000;-67
2022/10/19 08:45:25;;;;;;;10.70;4.85;;;;;;;12.69;100.00;96383.25;6173078;23;20036;-63
2022/10/19 08:48:13;;;;;;;21.10;5.67;;;;;;;12.80;100.00;96369.06;6176750;22;20065;-63
2022/10/19 08:50:41;;;;;;;18.88;6.53;;;;;;;12.88;100.00;96367.38;6175965;23;20061;-63
2022/10/19 08:53:13;;;;;;;27.85;9.25;;;;;;;12.97;100.00;96365.72;6174847;23;20058;-63
2022/10/19 08:55:59;;;;;;;14.93;7.43;;;;;;;13.07;100.00;96363.06;6174671;23;20001;-63
2022/10/19 08:58:33;;;;;;;14.45;4.40;;;;;;;13.31;100.00;96353.84;6175802;23;20001;-65
2022/10/19 09:01:05;;;;;;;19.20;4.38;;;;;;;13.46;100.00;96349.81;6176530;23;20053;-66
2022/10/19 09:03:41;;;;;;;15.68;4.43;;;;;;;13.54;100.00;96353.53;6177192;23;20017;-58
2022/10/19 09:06:58;;;;;;;13.75;5.20;;;;;;;13.65;100.00;96344.59;6176417;23;20435;-58
2022/10/19 09:09:27;;;;;;;10.27;4.13;;;;;;;13.71;100.00;96331.63;6178747;23;20068;-58
2022/10/19 09:11:57;;;;;;;9.65;4.05;;;;;;;13.75;100.00;96340.91;6177447;23;20035;-58
2022/10/19 09:14:46;;;;;;;17.00;5.10;;;;;;;13.78;100.00;96341.59;6177543;23;19999;-58
2022/10/19 09:17:15;;;;;;;13.60;3.58;;;;;;;13.76;100.00;96347.06;6177510;23;20415;-57
2022/10/19 09:19:41;;;;;;;15.73;4.68;;;;;;;13.77;100.00;96355.81;6177248;23;20019;-62
2022/10/19 09:22:14;;;;;;;13.27;3.78;;;;;;;13.80;100.00;96350.22;6177692;23;20071;-62
2022/10/19 09:24:46;;;;;;;9.48;4.13;;;;;;;13.86;100.00;96345.19;6177168;23;20008;-62
2022/10/19 09:27:37;;;;;;;12.20;4.78;;;;;;;14.00;100.00;96338.56;6177501;23;20280;-63
2022/10/19 09:30:14;;;;;;;8.30;4.22;;;;;;;14.13;100.00;96337.41;6177482;23;20344;-62
2022/10/19 09:32:41;;;;;;;12.65;4.63;;;;;;;14.29;98.45;96342.03;6177232;23;19996;-62
2022/10/19 09:35:19;;;;;;;11.63;4.72;;;;;;;14.38;96.28;96333.22;6177150;23;20058;-63
2022/10/19 09:37:48;;;;;;;6.28;3.85;;;;;;;14.44;96.73;96335.25;6176956;23;19997;-63
2022/10/19 09:40:17;;;;;;;7.40;3.60;;;;;;;14.52;94.34;96339.81;6176483;23;20001;-68
2022/10/19 09:42:43;;;;;;;11.93;4.22;;;;;;;14.63;95.93;96324.66;6176360;23;20005;-64
2022/10/19 09:45:18;;;;;;;10.35;3.60;;;;;;;14.82;95.91;96334.31;6175326;23;20048;-64
2022/10/19 09:47:46;;;;;;;;;;;;;;;14.94;94.76;96322.47;6175783;23;20084;-64
2022/10/19 09:50:21;;;;;;;13.02;4.32;;;;;;;15.01;97.16;96326.16;6176374;22;19912;-63
2022/10/19 09:52:52;;;;;;;9.93;4.50;;;;;;;15.06;96.99;96323.03;6175636;23;19997;-63
2022/10/19 09:55:37;;;;;;;14.50;4.00;;;;;;;15.17;94.71;96320.16;6175546;23;20510;-64
2022/10/19 09:58:27;;;;;;;10.10;3.95;;;;;;;15.11;90.93;96326.06;6174969;23;20008;-68
2022/10/19 10:00:53;;;;;;;9.68;3.95;;;;;;;15.20;91.08;96323.47;6148710;23;20007;-68
2022/10/19 10:03:29;;;;;;;9.25;3.58;;;;;;;15.25;88.82;96324.69;6175232;22;20043;-67
2022/10/19 10:06:06;;;;;;;9.30;4.32;;;;;;;15.26;89.37;96321.03;6176368;23;20510;-68
2022/10/19 10:08:43;;;;;;;10.35;3.95;;;;;;;15.35;87.99;96319.25;6150903;23;20008;-69
2022/10/19 10:11:14;;;;;;;8.68;3.08;;;;;;;15.45;88.01;96319.97;6177299;23;20004;-68
2022/10/19 10:13:48;;;;;;;15.20;3.90;;;;;;;15.55;84.95;96319.88;6176283;23;20451;-68
2022/10/19 10:16:16;;;;;;;9.60;3.88;;;;;;;15.59;86.48;96315.09;6176119;23;20004;-68
2022/10/19 10:18:53;;;;;;;18.13;3.90;;;;;;;15.62;85.03;96320.09;6175690;23;20078;-66
2022/10/19 10:21:32;;;;;;;8.27;3.30;;;;;;;15.73;81.76;96316.31;6177365;23;20037;-59
2022/10/19 10:24:15;;;;;;;9.90;3.80;;;;;;;15.78;84.09;96311.34;6176873;23;20054;-59
2022/10/19 10:26:45;;;;;;;10.63;3.88;;;;;;;15.88;82.07;96313.88;6176920;23;20012;-59
2022/10/19 10:29:29;;;;;;;9.43;3.97;;;;;;;16.04;81.18;96313.13;6176844;23;20008;-59
2022/10/19 10:31:59;;;;;;;15.75;4.50;;;;;;;16.33;83.21;96312.72;6177034;23;20047;-59
2022/10/19 10:34:53;;;;;;;15.25;4.43;;;;;;;16.66;77.86;96305.78;6176732;23;20004;-59
2022/10/19 10:37:40;;;;;;;9.38;3.90;;;;;;;16.83;74.75;96298.66;6121314;23;20013;-68
2022/10/19 10:40:19;;;;;;;11.73;4.07;;;;;;;16.89;73.68;96296.13;6175674;23;20008;-68
2022/10/19 10:42:47;;;;;;;9.90;4.32;;;;;;;16.97;76.24;96294.50;6176279;23;20062;-68
2022/10/19 10:45:23;;;;;;;13.38;4.50;;;;;;;17.14;75.99;96298.84;6175353;23;20055;-68
2022/10/19 10:47:50;;;;;;;10.38;3.95;;;;;;;17.41;74.53;96299.44;6176098;23;20005;-67
2022/10/19 10:50:35;;;;;;;6.93;3.80;;;;;;;17.51;75.80;96285.94;6175940;23;20061;-67
2022/10/19 10:53:06;;;;;;;13.50;4.00;;;;;;;17.76;66.90;96276.03;6174860;23;20108;-67
2022/10/19 10:55:32;;;;;;;9.40;3.95;;;;;;;17.61;66.93;96277.75;6175757;23;20056;-67
2022/10/19 10:58:29;;;;;;;13.50;3.65;;;;;;;17.96;64.06;96272.13;6176877;23;19997;-64
2022/10/19 11:00:55;;;;;;;11.98;3.72;;;;;;;17.98;67.24;96264.78;6176670;22;20009;-56
2022/10/19 11:03:27;;;;;;;9.63;3.33;;;;;;;18.17;63.27;96271.53;6177294;23;20054;-57
2022/10/19 11:05:58;;;;;;;12.82;4.68;;;;;;;18.37;63.06;96255.09;6173888;23;20054;-55
2022/10/19 11:08:30;;;;;;;13.27;3.88;;;;;;;18.38;61.86;96257.59;6175962;23;20478;-58
2022/10/19 11:11:22;;;;;;;9.85;3.83;;;;;;;18.40;62.06;96250.25;6176338;23;20080;-59
2022/10/19 11:14:23;;;;;;;14.20;4.25;;;;;;;18.43;63.91;96239.22;6176309;23;20008;-63
2022/10/19 11:16:52;;;;;;;10.40;3.58;;;;;;;18.57;63.31;96234.94;6175448;23;20008;-65
2022/10/19 11:19:29;;;;;;;11.32;4.10;;;;;;;18.64;62.20;96240.38;6176296;23;20016;-59
2022/10/19 11:22:01;;;;;;;8.60;3.35;;;;;;;18.85;58.57;96234.34;6175924;23;20051;-59
2022/10/19 11:24:58;;;;;;;11.40;3.65;;;;;;;18.83;59.19;96235.56;6176308;23;20343;-58
2022/10/19 11:27:33;;;;;;;10.18;3.78;;;;;;;18.77;59.28;96234.44;6176928;23;20009;-59
2022/10/19 11:30:19;;;;;;;20.20;4.18;;;;;;;18.71;57.27;96217.31;6176503;23;20030;-59
2022/10/19 11:32:48;;;;;;;14.75;3.95;;;;;;;18.61;59.10;96220.25;6176587;23;20042;-58
2022/10/19 11:35:38;;;;;;;12.32;3.95;;;;;;;18.60;60.37;96207.09;6175434;23;20055;-64